Time;durP1;ratioP1;P1;durP2;ratioP2;P2;SDS_P1;SDS_P2;PMS_P1;PMS_P2;Temp;Humidity;BMP_temperature;BMP_pressure;BME280_temperature;BME280_humidity;BME280_pressure;Samples;Min_cycle;Max_cycle;Signal;HPM_P1;HPM_P2
2022/04/09 00:00:56;;;;;;;;;;;5.00;99.90;;;;;;8401104;28;19927;-73
2022/04/09 00:04:58;;;;;;;;;;;5.10;99.90;;;;;;8396750;28;19932;-73
2022/04/09 00:09:00;;;;;;;;;;;5.10;99.90;;;;;;8401005;28;19939;-73
2022/04/09 00:13:01;;;;;;;;;;;5.10;99.90;;;;;;8395543;28;19928;-73
2022/04/09 00:17:03;;;;;;;;;;;5.10;99.90;;;;;;8395293;28;19924;-73
2022/04/09 00:21:05;;;;;;;;;;;5.10;99.90;;;;;;8393721;28;19929;-73
2022/04/09 00:25:08;;;;;;;;;;;5.00;99.90;;;;;;8396413;28;19978;-73
2022/04/09 00:29:10;;;;;;;;;;;4.90;99.90;;;;;;8405385;28;19935;-73
2022/04/09 00:33:11;;;;;;;;;;;4.90;99.90;;;;;;8391097;28;20403;-73
2022/04/09 00:37:13;;;;;;;;;;;4.80;99.90;;;;;;8391981;28;19925;-73
2022/04/09 00:41:15;;;;;;;;;;;4.80;99.90;;;;;;8390840;28;19928;-73
2022/04/09 00:45:17;;;;;;;;;;;4.80;99.90;;;;;;8396401;28;20019;-73
2022/04/09 00:49:18;;;;;;;;;;;4.90;99.90;;;;;;8394190;28;19924;-73
2022/04/09 00:53:20;;;;;;;;;;;5.00;99.90;;;;;;8388050;28;19942;-73
2022/04/09 00:57:25;;;;;;;;;;;5.00;99.90;;;;;;8396467;28;20394;-73
2022/04/09 01:01:27;;;;;;;;;;;4.90;99.90;;;;;;8391691;28;19931;-73
2022/04/09 01:05:29;;;;;;;;;;;4.90;99.90;;;;;;8394996;28;19924;-73
2022/04/09 01:09:31;;;;;;;;;;;4.80;99.90;;;;;;8389806;28;19924;-73
2022/04/09 01:13:34;;;;;;;;;;;4.80;99.90;;;;;;8385461;28;19951;-73
2022/04/09 01:17:36;;;;;;;;;;;4.70;99.90;;;;;;8384042;28;19963;-73
2022/04/09 01:21:38;;;;;;;;;;;4.60;99.90;;;;;;8384891;28;19978;-73
2022/04/09 01:25:40;;;;;;;;;;;4.50;99.90;;;;;;8385493;28;19935;-73
2022/04/09 01:29:43;;;;;;;;;;;4.50;99.90;;;;;;8384652;28;20344;-73
2022/04/09 01:33:45;;;;;;;;;;;4.40;99.90;;;;;;8378994;28;20272;-73
2022/04/09 01:37:47;;;;;;;;;;;4.50;99.90;;;;;;8378726;28;19925;-73
2022/04/09 01:41:49;;;;;;;;;;;4.50;99.90;;;;;;8389426;28;19924;-73
2022/04/09 01:45:51;;;;;;;;;;;4.60;99.90;;;;;;8390746;28;19925;-73
2022/04/09 01:49:53;;;;;;;;;;;4.60;99.90;;;;;;8380308;28;19935;-73
2022/04/09 01:53:55;;;;;;;;;;;4.60;99.90;;;;;;8389217;28;19932;-73
2022/04/09 01:57:56;;;;;;;;;;;4.60;99.90;;;;;;8392642;28;19931;-73
2022/04/09 02:01:58;;;;;;;;;;;4.50;99.90;;;;;;8388041;28;19980;-73
2022/04/09 02:06:00;;;;;;;;;;;4.40;99.90;;;;;;8389036;28;19977;-73
2022/04/09 02:10:02;;;;;;;;;;;4.40;99.90;;;;;;8380751;28;19948;-73
2022/04/09 02:14:04;;;;;;;;;;;4.40;99.90;;;;;;8397494;28;19978;-73
2022/04/09 02:18:06;;;;;;;;;;;4.40;99.90;;;;;;8398977;28;19940;-73
2022/04/09 02:22:07;;;;;;;;;;;4.30;99.90;;;;;;8398155;28;20392;-73
2022/04/09 02:26:09;;;;;;;;;;;4.30;99.90;;;;;;8388117;28;19932;-73
2022/04/09 02:30:11;;;;;;;;;;;4.30;99.90;;;;;;8422286;28;19933;-72
2022/04/09 02:34:12;;;;;;;;;;;4.30;99.90;;;;;;8380513;28;19960;-72
2022/04/09 02:38:14;;;;;;;;;;;4.30;99.90;;;;;;8396411;28;19935;-73
2022/04/09 02:42:15;;;;;;;;;;;4.30;99.90;;;;;;8437631;28;19963;-72
2022/04/09 02:46:17;;;;;;;;;;;4.30;99.90;;;;;;8395307;28;19924;-73
2022/04/09 02:50:19;;;;;;;;;;;4.30;99.90;;;;;;8399283;28;20366;-73
2022/04/09 02:54:21;;;;;;;;;;;4.20;99.90;;;;;;8398464;28;20276;-73
2022/04/09 02:58:23;;;;;;;;;;;4.20;99.90;;;;;;8394375;28;19935;-73
2022/04/09 03:02:24;;;;;;;;;;;4.30;99.90;;;;;;8427896;28;19932;-72
2022/04/09 03:06:26;;;;;;;;;;;4.30;99.90;;;;;;8393450;28;19928;-72
2022/04/09 03:10:28;;;;;;;;;;;4.30;99.90;;;;;;8392344;28;20405;-73
2022/04/09 03:14:30;;;;;;;;;;;4.30;99.90;;;;;;8400996;28;19924;-73
2022/04/09 03:18:31;;;;;;;;;;;4.20;99.90;;;;;;8390346;28;19932;-73
2022/04/09 03:22:34;;;;;;;;;;;4.10;99.90;;;;;;8405909;28;19975;-72
2022/04/09 03:26:36;;;;;;;;;;;4.00;99.90;;;;;;8394504;28;20274;-73
2022/04/09 03:30:38;;;;;;;;;;;4.00;99.90;;;;;;8396168;28;19973;-73
2022/04/09 03:34:40;;;;;;;;;;;4.00;99.90;;;;;;8396530;28;19931;-73
2022/04/09 03:38:42;;;;;;;;;;;4.00;99.90;;;;;;8398544;28;19932;-73
2022/04/09 03:42:44;;;;;;;;;;;4.00;99.90;;;;;;8391732;28;19924;-73
2022/04/09 03:46:46;;;;;;;;;;;4.00;99.90;;;;;;8390389;28;19929;-73
2022/04/09 03:50:47;;;;;;;;;;;4.00;99.90;;;;;;8402629;28;19924;-72
2022/04/09 03:54:49;;;;;;;;;;;4.00;99.90;;;;;;8397376;28;19924;-72
2022/04/09 03:58:51;;;;;;;;;;;4.00;99.90;;;;;;8394526;28;19931;-72
2022/04/09 04:02:54;;;;;;;;;;;4.00;99.90;;;;;;8389451;28;19936;-72
2022/04/09 04:06:56;;;;;;;;;;;4.00;99.90;;;;;;8381331;28;20368;-73
2022/04/09 04:10:58;;;;;;;;;;;4.00;99.90;;;;;;8397935;28;19955;-73
2022/04/09 04:14:59;;;;;;;;;;;4.10;99.90;;;;;;8393239;28;20260;-73
2022/04/09 04:19:01;;;;;;;;;;;4.10;99.90;;;;;;8395535;28;20274;-73
2022/04/09 04:23:03;;;;;;;;;;;4.10;99.90;;;;;;8380620;28;20284;-73
2022/04/09 04:27:05;;;;;;;;;;;4.10;99.90;;;;;;8380192;28;20296;-73
2022/04/09 04:31:07;;;;;;;;;;;4.00;99.90;;;;;;8381311;28;19929;-73
2022/04/09 04:35:10;;;;;;;;;;;4.00;99.90;;;;;;8413485;27;20363;-73
2022/04/09 04:39:12;;;;;;;;;;;3.90;99.90;;;;;;8384562;28;20001;-73
2022/04/09 04:43:14;;;;;;;;;;;3.90;99.90;;;;;;8387664;28;19970;-73
2022/04/09 04:47:16;;;;;;;;;;;3.90;99.90;;;;;;8387911;28;19936;-73
2022/04/09 04:51:17;;;;;;;;;;;3.80;99.90;;;;;;8382532;28;19928;-72
2022/04/09 04:55:19;;;;;;;;;;;3.80;99.90;;;;;;8386451;28;19925;-73
2022/04/09 04:59:21;;;;;;;;;;;3.80;99.90;;;;;;8383979;28;19924;-73
2022/04/09 05:03:22;;;;;;;;;;;3.90;99.90;;;;;;8387376;28;19924;-73
2022/04/09 05:07:35;;;;;;;;;;;3.80;99.90;;;;;;8379531;28;19935;-73
2022/04/09 05:11:37;;;;;;;;;;;3.90;99.90;;;;;;8375246;28;19936;-73
2022/04/09 05:15:39;;;;;;;;;;;3.90;99.90;;;;;;8385675;28;19929;-72
2022/04/09 05:19:40;;;;;;;;;;;3.90;99.90;;;;;;8381904;28;19978;-73
2022/04/09 05:23:42;;;;;;;;;;;4.00;99.90;;;;;;8389569;28;19939;-73
2022/04/09 05:27:44;;;;;;;;;;;4.10;99.90;;;;;;8397336;28;19924;-73
2022/04/09 05:31:47;;;;;;;;;;;4.10;99.90;;;;;;8393230;28;19929;-73
2022/04/09 05:35:49;;;;;;;;;;;4.20;99.90;;;;;;8404399;28;20023;-73
2022/04/09 05:39:51;;;;;;;;;;;4.30;99.90;;;;;;8397895;28;19947;-73
2022/04/09 05:43:54;;;;;;;;;;;4.30;99.90;;;;;;8390560;28;20220;-73
2022/04/09 05:47:56;;;;;;;;;;;4.30;99.90;;;;;;8402441;28;19928;-72
2022/04/09 05:51:58;;;;;;;;;;;4.40;99.90;;;;;;8386575;28;20370;-73
2022/04/09 05:55:59;;;;;;;;;;;4.50;99.90;;;;;;8385283;28;19925;-73
2022/04/09 06:00:02;;;;;;;;;;;4.50;99.90;;;;;;8381793;28;19943;-73
2022/04/09 06:04:04;;;;;;;;;;;4.60;99.90;;;;;;8377396;28;19931;-73
2022/04/09 06:08:06;;;;;;;;;;;4.70;99.90;;;;;;8379400;28;19924;-73
2022/04/09 06:12:11;;;;;;;;;;;4.70;99.90;;;;;;8375724;28;20019;-73
2022/04/09 06:16:12;;;;;;;;;;;4.70;99.90;;;;;;8384951;28;19929;-73
2022/04/09 06:20:15;;;;;;;;;;;4.80;99.90;;;;;;8383846;28;19967;-73
2022/04/09 06:24:17;;;;;;;;;;;4.80;99.90;;;;;;8382125;28;19943;-73
2022/04/09 06:28:19;;;;;;;;;;;4.90;99.90;;;;;;8387689;28;20269;-73
2022/04/09 06:32:20;;;;;;;;;;;5.00;99.90;;;;;;8392466;28;20299;-73
2022/04/09 06:36:22;;;;;;;;;;;5.00;99.90;;;;;;8369147;28;20346;-73
2022/04/09 06:40:26;;;;;;;;;;;5.00;99.90;;;;;;8386122;28;19960;-73
2022/04/09 06:44:28;;;;;;;;;;;5.20;99.90;;;;;;8393720;28;20250;-73
2022/04/09 06:48:30;;;;;;;;;;;5.40;99.90;;;;;;8405843;28;20352;-73
2022/04/09 06:52:31;;;;;;;;;;;5.60;99.90;;;;;;8395723;28;19924;-72
2022/04/09 06:56:33;;;;;;;;;;;5.80;99.90;;;;;;8383564;28;20334;-73
2022/04/09 07:00:35;;;;;;;;;;;6.10;99.90;;;;;;8380045;28;19931;-73
2022/04/09 07:04:36;;;;;;;;;;;6.30;99.90;;;;;;8374337;28;19929;-73
2022/04/09 07:08:39;;;;;;;;;;;6.60;99.90;;;;;;8379716;28;20020;-73
2022/04/09 07:12:41;;;;;;;;;;;6.60;99.90;;;;;;8373118;28;20284;-73
2022/04/09 07:16:45;;;;;;;;;;;6.60;99.90;;;;;;8381382;28;19928;-74
2022/04/09 07:20:46;;;;;;;;;;;6.50;99.90;;;;;;8396554;28;19932;-73
2022/04/09 07:24:48;;;;;;;;;;;6.40;99.90;;;;;;8382862;28;19924;-73
2022/04/09 07:28:50;;;;;;;;;;;6.30;99.90;;;;;;8399480;28;19932;-74
2022/04/09 07:32:53;;;;;;;;;;;6.30;99.90;;;;;;8384729;28;19925;-74
2022/04/09 07:36:55;;;;;;;;;;;6.30;99.90;;;;;;8370580;28;19925;-73
2022/04/09 07:40:57;;;;;;;;;;;6.40;99.90;;;;;;8388402;28;19935;-74
2022/04/09 07:44:58;;;;;;;;;;;6.50;99.90;;;;;;8381274;28;20295;-74
2022/04/09 07:49:00;;;;;;;;;;;6.50;99.90;;;;;;8419132;27;20300;-73
2022/04/09 07:53:02;;;;;;;;;;;6.60;99.90;;;;;;8384469;28;19970;-73
2022/04/09 07:57:04;;;;;;;;;;;6.70;99.90;;;;;;8388762;28;19932;-73
2022/04/09 08:01:05;;;;;;;;;;;6.90;99.90;;;;;;8383899;28;20277;-73
2022/04/09 08:05:10;;;;;;;;;;;7.20;99.90;;;;;;8387347;28;19968;-73
2022/04/09 08:09:12;;;;;;;;;;;7.50;99.90;;;;;;8391290;28;19925;-73
2022/04/09 08:13:14;;;;;;;;;;;7.80;99.90;;;;;;8384321;28;19955;-73
2022/04/09 08:17:20;;;;;;;;;;;8.10;99.90;;;;;;8386328;28;20337;-73
2022/04/09 08:21:21;;;;;;;;;;;8.30;99.90;;;;;;8384604;28;19931;-73
2022/04/09 08:25:23;;;;;;;;;;;8.40;99.90;;;;;;8373806;28;19933;-73
2022/04/09 08:29:25;;;;;;;;;;;8.20;99.90;;;;;;8386523;28;19931;-73
2022/04/09 08:33:27;;;;;;;;;;;8.20;99.90;;;;;;8376408;28;19925;-74
2022/04/09 08:37:28;;;;;;;;;;;8.00;99.90;;;;;;8393376;28;20406;-73
2022/04/09 08:41:30;;;;;;;;;;;7.80;99.90;;;;;;8378573;28;19924;-74
2022/04/09 08:45:36;;;;;;;;;;;7.80;99.90;;;;;;8392121;28;19925;-74
2022/04/09 08:49:40;;;;;;;;;;;7.80;99.90;;;;;;8398217;28;19929;-73
2022/04/09 08:53:42;;;;;;;;;;;7.90;99.90;;;;;;8379538;28;20360;-73
2022/04/09 08:57:45;;;;;;;;;;;7.80;99.90;;;;;;8388970;28;19932;-72
2022/04/09 09:01:47;;;;;;;;;;;7.40;99.90;;;;;;8395184;28;19925;-72
2022/04/09 09:05:52;;;;;;;;;;;6.90;99.90;;;;;;8422383;27;19932;-72
2022/04/09 09:10:12;;;;;;;;;;;6.60;99.90;;;;;;8386344;28;20402;-72
2022/04/09 09:14:29;;;;;;;;;;;6.60;99.90;;;;;;8383786;28;19929;-73
2022/04/09 09:18:32;;;;;;;;;;;6.60;99.90;;;;;;8414235;27;20291;-72
2022/04/09 09:22:38;;;;;;;;;;;6.70;99.90;;;;;;8374384;28;19947;-73
2022/04/09 09:26:40;;;;;;;;;;;7.20;99.90;;;;;;8378516;28;19931;-72
2022/04/09 09:30:48;;;;;;;;;;;7.10;99.90;;;;;;8380961;28;20383;-72
2022/04/09 09:34:54;;;;;;;;;;;6.50;99.90;;;;;;8379448;28;20324;-73
2022/04/09 09:39:01;;;;;;;;;;;6.10;99.90;;;;;;8378977;28;19928;-72
2022/04/09 09:43:12;;;;;;;;;;;5.80;99.90;;;;;;8379292;28;20230;-73
2022/04/09 09:47:17;;;;;;;;;;;5.60;99.90;;;;;;8388885;28;19925;-72
2022/04/09 09:51:23;;;;;;;;;;;5.60;99.90;;;;;;8385902;28;19951;-73
2022/04/09 09:55:25;;;;;;;;;;;5.70;99.90;;;;;;8388911;28;19932;-73
2022/04/09 09:59:28;;;;;;;;;;;5.80;99.90;;;;;;8382699;28;19929;-73
2022/04/09 10:03:30;;;;;;;;;;;6.10;99.90;;;;;;8379708;28;20328;-72
2022/04/09 10:07:33;;;;;;;;;;;6.60;99.90;;;;;;8379323;28;19924;-73
2022/04/09 10:11:36;;;;;;;;;;;7.10;99.90;;;;;;8377544;28;20372;-73
2022/04/09 10:15:39;;;;;;;;;;;7.60;99.90;;;;;;8373427;28;20292;-73
2022/04/09 10:19:41;;;;;;;;;;;8.10;99.90;;;;;;8380043;28;20344;-73
2022/04/09 10:23:44;;;;;;;;;;;8.40;99.90;;;;;;8381890;28;20025;-73
2022/04/09 10:27:52;;;;;;;;;;;8.90;99.90;;;;;;8373078;28;19936;-73
2022/04/09 10:31:54;;;;;;;;;;;9.20;99.90;;;;;;8377851;28;19939;-73
2022/04/09 10:36:02;;;;;;;4.45;1.23;;;9.60;99.90;;;;;;8371760;28;19928;-73
2022/04/09 10:40:04;;;;;;;8.60;2.83;;;10.10;99.90;;;;;;8378450;28;20056;-73
2022/04/09 10:44:06;;;;;;;5.97;1.60;;;10.50;99.90;;;;;;8370623;28;20044;-72
2022/04/09 10:48:11;;;;;;;;;;;10.30;99.90;;;;;;8368687;28;20389;-72
2022/04/09 10:52:16;;;;;;;;;;;9.10;99.90;;;;;;8382045;28;21978;-72
2022/04/09 10:56:24;;;;;;;;;;;7.90;99.90;;;;;;8377632;28;19924;-73
2022/04/09 11:00:31;;;;;;;;;;;7.20;99.90;;;;;;8378028;28;19927;-72
2022/04/09 11:04:36;;;;;;;;;;;6.70;99.90;;;;;;8378638;28;20280;-72
2022/04/09 11:08:39;;;;;;;;;;;6.40;99.90;;;;;;8384661;28;19977;-73
2022/04/09 11:12:42;;;;;;;;;;;6.30;99.90;;;;;;8384150;28;20281;-73
2022/04/09 11:16:44;;;;;;;;;;;6.60;99.90;;;;;;8390224;28;19928;-73
2022/04/09 11:20:46;;;;;;;;;;;7.40;99.90;;;;;;8389255;28;19979;-73
2022/04/09 11:24:47;;;;;;;;;;;8.10;99.90;;;;;;8393967;28;19955;-73
2022/04/09 11:28:49;;;;;;;;;;;8.70;99.90;;;;;;8391513;28;19920;-73
2022/04/09 11:32:51;;;;;;;;;;;9.00;99.90;;;;;;8417288;28;19928;-73
2022/04/09 11:37:08;;;;;;;;;;;8.80;99.90;;;;;;8383437;28;19943;-73
2022/04/09 11:41:18;;;;;;;;;;;8.50;99.90;;;;;;8389274;28;19996;-73
2022/04/09 11:45:31;;;;;;;;;;;8.00;99.90;;;;;;8391652;28;19928;-73
2022/04/09 11:49:33;;;;;;;;;;;7.70;99.90;;;;;;8379960;28;19927;-73
2022/04/09 11:53:34;;;;;;;;;;;8.00;99.90;;;;;;8380188;28;19927;-72
2022/04/09 11:57:36;;;;;;;;;;;8.60;99.90;;;;;;8381071;28;19939;-73
2022/04/09 12:01:38;;;;;;;5.85;1.33;;;9.50;99.90;;;;;;8374530;28;19927;-74
2022/04/09 12:05:44;;;;;;;4.72;1.20;;;10.20;99.90;;;;;;8383522;28;20037;-73
2022/04/09 12:09:47;;;;;;;2.70;0.90;;;10.80;99.90;;;;;;8381664;28;20045;-73
2022/04/09 12:13:49;;;;;;;4.13;1.25;;;11.20;99.90;;;;;;8380810;28;20041;-73
2022/04/09 12:17:51;;;;;;;3.65;0.95;;;11.70;99.90;;;;;;8387651;28;20052;-73
2022/04/09 12:21:53;;;;;;;4.45;1.00;;;12.10;99.90;;;;;;8380248;28;20495;-73
2022/04/09 12:25:54;;;;;;;3.47;1.15;;;12.30;99.90;;;;;;8383178;28;20048;-72
2022/04/09 12:29:58;;;;;;;3.30;1.40;;;12.20;99.90;;;;;;8382359;28;20040;-73
2022/04/09 12:34:00;;;;;;;4.97;1.20;;;12.10;99.90;;;;;;8388843;28;20043;-72
2022/04/09 12:38:02;;;;;;;3.50;1.40;;;11.70;99.90;;;;;;8370970;28;20485;-72
2022/04/09 12:42:04;;;;;;;5.40;1.20;;;11.30;99.90;;;;;;8375252;28;20049;-72
2022/04/09 12:46:07;;;;;;;;;;;11.00;99.90;;;;;;8390877;28;20048;-72
2022/04/09 12:50:18;;;;;;;;;;;11.00;99.90;;;;;;8376325;28;19936;-72
2022/04/09 12:54:21;;;;;;;;;;;10.90;99.90;;;;;;8386545;28;20368;-72
2022/04/09 12:58:25;;;;;;;;;;;10.90;99.90;;;;;;8393519;28;19919;-72
2022/04/09 13:02:27;;;;;;;;;;;10.80;99.90;;;;;;8383072;28;19947;-72
2022/04/09 13:06:29;;;;;;;;;;;10.70;99.90;;;;;;8353402;28;19925;-71
2022/04/09 13:10:30;;;;;;;;;;;10.60;99.90;;;;;;8367607;28;19978;-71
2022/04/09 13:14:32;;;;;;;;;;;10.70;99.90;;;;;;8364074;28;20306;-72
2022/04/09 13:18:35;;;;;;;;;;;10.80;99.90;;;;;;8354793;28;19924;-72
2022/04/09 13:22:37;;;;;;;;;;;10.80;99.90;;;;;;8357326;28;19920;-72
2022/04/09 13:26:39;;;;;;;2.47;0.82;;;11.20;99.90;;;;;;8368527;28;20392;-72
2022/04/09 13:30:41;;;;;;;2.17;1.00;;;11.60;99.90;;;;;;8354303;28;20091;-72
2022/04/09 13:34:45;;;;;;;4.47;1.48;;;11.70;99.90;;;;;;8352656;28;20041;-72
2022/04/09 13:38:47;;;;;;;3.15;1.05;;;11.80;99.90;;;;;;8356061;28;20052;-72
2022/04/09 13:42:49;;;;;;;;;;;11.90;99.90;;;;;;8354122;28;20048;-72
2022/04/09 13:46:50;;;;;;;6.30;1.20;;;12.10;99.90;;;;;;8357825;28;19951;-72
2022/04/09 13:50:52;;;;;;;;;;;12.00;99.90;;;;;;8359580;28;20056;-72
2022/04/09 13:54:55;;;;;;;;;;;11.60;99.90;;;;;;8355920;28;19928;-72
2022/04/09 13:58:57;;;;;;;;;;;11.30;99.90;;;;;;8356607;28;20399;-72
2022/04/09 14:02:58;;;;;;;;;;;11.00;99.90;;;;;;8366100;28;19929;-72
2022/04/09 14:07:00;;;;;;;;;;;10.80;99.90;;;;;;8359636;28;20213;-72
2022/04/09 14:11:02;;;;;;;;;;;11.10;99.90;;;;;;8345930;28;20322;-72
2022/04/09 14:15:04;;;;;;;;;;;11.30;99.90;;;;;;8352521;28;19928;-72
2022/04/09 14:19:05;;;;;;;;;;;11.40;99.90;;;;;;8352141;28;20376;-72
2022/04/09 14:23:07;;;;;;;;;;;11.40;99.90;;;;;;8355797;28;20562;-72
2022/04/09 14:27:10;;;;;;;;;;;11.30;99.90;;;;;;8385405;28;19924;-72
2022/04/09 14:31:12;;;;;;;;;;;11.20;99.90;;;;;;8353016;28;20399;-71
2022/04/09 14:35:16;;;;;;;;;;;10.80;99.90;;;;;;8391741;28;19946;-72
2022/04/09 14:39:18;;;;;;;;;;;10.40;99.90;;;;;;8385511;28;19936;-71
2022/04/09 14:43:22;;;;;;;;;;;10.20;99.90;;;;;;8357485;28;19935;-71
2022/04/09 14:47:24;;;;;;;;;;;10.60;99.90;;;;;;8361199;28;20288;-71
2022/04/09 14:51:25;;;;;;;;;;;11.10;99.90;;;;;;8361706;28;19928;-71
2022/04/09 14:55:27;;;;;;;;;;;11.10;99.90;;;;;;8357546;28;19920;-71
2022/04/09 14:59:29;;;;;;;;;;;10.60;99.90;;;;;;8357826;28;19929;-71
2022/04/09 15:03:30;;;;;;;;;;;10.30;99.90;;;;;;8352485;28;19928;-71
2022/04/09 15:07:33;;;;;;;;;;;10.40;99.90;;;;;;8371436;28;19920;-71
2022/04/09 15:11:34;;;;;;;;;;;11.00;99.90;;;;;;8357612;28;19948;-71
2022/04/09 15:15:36;;;;;;;4.78;1.10;;;11.00;99.90;;;;;;8353617;28;20288;-71
2022/04/09 15:19:38;;;;;;;;;;;10.80;99.90;;;;;;8357940;28;20041;-71
2022/04/09 15:23:39;;;;;;;;;;;10.70;99.90;;;;;;8361014;28;19974;-71
2022/04/09 15:27:41;;;;;;;;;;;10.50;99.90;;;;;;8359647;28;19931;-71
2022/04/09 15:31:43;;;;;;;;;;;10.30;99.90;;;;;;8360303;28;19928;-71
2022/04/09 15:35:45;;;;;;;;;;;10.10;99.90;;;;;;8390519;28;19920;-71
2022/04/09 15:39:46;;;;;;;;;;;10.00;99.90;;;;;;8357179;28;19939;-71
2022/04/09 15:43:48;;;;;;;;;;;9.80;99.90;;;;;;8358631;28;20046;-71
2022/04/09 15:47:50;;;;;;;;;;;9.60;99.90;;;;;;8363583;28;19929;-71
2022/04/09 15:51:52;;;;;;;;;;;9.30;99.90;;;;;;8356358;28;19921;-71
2022/04/09 15:55:53;;;;;;;;;;;8.90;99.90;;;;;;8368044;28;22792;-71
2022/04/09 15:59:56;;;;;;;;;;;8.60;99.90;;;;;;8357435;28;19924;-71
2022/04/09 16:03:58;;;;;;;;;;;8.40;99.90;;;;;;8355077;28;19966;-71
2022/04/09 16:08:00;;;;;;;;;;;8.30;99.90;;;;;;8360274;28;19936;-71
2022/04/09 16:12:03;;;;;;;;;;;8.80;99.90;;;;;;8356973;28;20628;-71
2022/04/09 16:16:05;;;;;;;;;;;9.90;99.90;;;;;;8356184;28;19928;-71
2022/04/09 16:20:09;;;;;;;3.88;1.33;;;11.30;99.90;;;;;;8357547;28;20015;-72
2022/04/09 16:24:12;;;;;;;;;;;12.00;99.90;;;;;;8356234;28;20048;-71
2022/04/09 16:28:14;;;;;;;;;;;11.60;99.90;;;;;;8361809;28;20577;-71
2022/04/09 16:32:15;;;;;;;;;;;11.00;99.90;;;;;;8389801;28;20424;-71
2022/04/09 16:36:17;;;;;;;;;;;10.50;99.90;;;;;;8354435;28;20284;-71
2022/04/09 16:40:20;;;;;;;;;;;10.30;99.90;;;;;;8357466;28;20281;-71
2022/04/09 16:44:22;;;;;;;;;;;10.10;99.90;;;;;;8354923;28;19932;-71
2022/04/09 16:48:23;;;;;;;;;;;10.00;99.90;;;;;;8355353;28;20406;-71
2022/04/09 16:52:25;;;;;;;;;;;10.40;99.90;;;;;;8355443;28;19924;-71
2022/04/09 16:56:27;;;;;;;;;;;10.90;99.90;;;;;;8356460;28;19932;-71
2022/04/09 17:00:29;;;;;;;;;;;11.70;99.90;;;;;;8354511;28;19938;-71
2022/04/09 17:04:30;;;;;;;2.70;0.70;;;12.60;99.90;;;;;;8353542;28;19925;-71
2022/04/09 17:08:32;;;;;;;;;;;12.30;99.90;;;;;;8358076;28;20053;-71
2022/04/09 17:12:37;;;;;;;;;;;11.30;99.90;;;;;;8362881;28;20264;-71
2022/04/09 17:16:40;;;;;;;;;;;10.40;99.90;;;;;;8357981;28;19936;-71
2022/04/09 17:20:41;;;;;;;;;;;9.70;99.90;;;;;;8358437;28;20323;-71
2022/04/09 17:24:43;;;;;;;;;;;9.30;99.90;;;;;;8357005;28;19944;-71
2022/04/09 17:28:45;;;;;;;;;;;9.10;99.90;;;;;;8355710;28;19928;-71
2022/04/09 17:32:46;;;;;;;;;;;9.70;99.90;;;;;;8362633;28;20289;-71
2022/04/09 17:36:48;;;;;;;;;;;10.40;99.90;;;;;;8357361;28;19928;-71
2022/04/09 17:40:54;;;;;;;;;;;10.90;99.90;;;;;;8355885;28;19956;-71
2022/04/09 17:44:56;;;;;;;;;;;11.00;99.90;;;;;;8355806;28;19928;-71
2022/04/09 17:48:57;;;;;;;;;;;11.00;99.90;;;;;;8354937;28;19921;-71
2022/04/09 17:52:59;;;;;;;;;;;11.00;99.90;;;;;;8352109;28;19971;-71
2022/04/09 17:57:01;;;;;;;;;;;10.90;99.90;;;;;;8355528;28;19921;-71
2022/04/09 18:01:02;;;;;;;;;;;10.80;99.90;;;;;;8388095;28;19936;-71
2022/04/09 18:05:05;;;;;;;;;;;10.30;99.90;;;;;;8353766;28;20019;-71
2022/04/09 18:09:07;;;;;;;;;;;9.90;99.90;;;;;;8356143;28;19920;-71
2022/04/09 18:13:08;;;;;;;;;;;9.40;99.90;;;;;;8350764;28;20383;-71
2022/04/09 18:17:10;;;;;;;;;;;9.00;99.90;;;;;;8355446;28;19925;-71
2022/04/09 18:21:12;;;;;;;;;;;8.60;99.90;;;;;;8370911;28;19924;-71
2022/04/09 18:25:38;;;;;;;;;;;8.40;99.90;;;;;;8361751;28;19921;-70
2022/04/09 18:29:40;;;;;;;;;;;8.20;99.90;;;;;;8364083;28;20266;-71
2022/04/09 18:33:42;;;;;;;;;;;8.00;99.90;;;;;;8359427;28;19921;-71
2022/04/09 18:37:44;;;;;;;;;;;7.90;99.90;;;;;;8359981;28;19935;-71
2022/04/09 18:41:45;;;;;;;;;;;7.70;99.90;;;;;;8362426;28;19928;-71
2022/04/09 18:45:47;;;;;;;;;;;7.60;99.90;;;;;;8396576;27;19951;-71
2022/04/09 18:49:49;;;;;;;;;;;7.60;99.90;;;;;;8359255;28;19920;-71
2022/04/09 18:53:53;;;;;;;;;;;7.50;99.90;;;;;;8358489;28;19920;-71
2022/04/09 18:57:55;;;;;;;;;;;7.20;99.90;;;;;;8357061;28;20255;-71
2022/04/09 19:01:57;;;;;;;;;;;6.80;99.90;;;;;;8360852;28;19929;-71
2022/04/09 19:06:00;;;;;;;5.55;1.45;;;6.60;99.90;;;;;;8357663;28;19999;-71
2022/04/09 19:10:03;;;;;;;3.35;1.20;;;6.40;99.90;;;;;;8360586;28;20068;-71
2022/04/09 19:14:06;;;;;;;3.90;1.30;;;6.20;99.90;;;;;;8357614;28;20052;-71
2022/04/09 19:18:08;;;;;;;5.53;1.15;;;6.20;99.90;;;;;;8358462;28;20309;-71
2022/04/09 19:22:09;;;;;;;3.53;1.23;;;6.10;99.90;;;;;;8362381;28;20425;-71
2022/04/09 19:26:11;;;;;;;6.20;1.98;;;6.10;99.90;;;;;;8367768;28;20349;-71
2022/04/09 19:30:13;;;;;;;4.40;1.20;;;6.00;99.90;;;;;;8355925;28;20416;-71
2022/04/09 19:34:16;;;;;;;3.90;1.58;;;5.90;99.90;;;;;;8360498;28;20052;-71
2022/04/09 19:38:18;;;;;;;6.50;1.50;;;5.90;99.90;;;;;;8355715;28;20048;-71
2022/04/09 19:42:20;;;;;;;;;;;5.90;99.90;;;;;;8355604;28;20368;-71
2022/04/09 19:46:22;;;;;;;;;;;5.80;99.90;;;;;;8359748;28;19936;-71
2022/04/09 19:50:24;;;;;;;;;;;5.70;99.90;;;;;;8359142;28;19931;-71
2022/04/09 19:54:26;;;;;;;;;;;5.60;99.90;;;;;;8357411;28;19935;-71
2022/04/09 19:58:28;;;;;;;;;;;5.50;99.90;;;;;;8356610;28;19980;-71
2022/04/09 20:02:30;;;;;;;;;;;5.40;99.90;;;;;;8390207;27;19936;-71
2022/04/09 20:06:32;;;;;;;;;;;5.30;99.90;;;;;;8361318;28;19933;-71
2022/04/09 20:10:34;;;;;;;;;;;5.20;99.90;;;;;;8356676;28;19933;-70
2022/04/09 20:14:36;;;;;;;;;;;5.10;99.90;;;;;;8354547;28;19925;-71
2022/04/09 20:18:39;;;;;;;;;;;5.00;99.90;;;;;;8355003;28;19980;-71
2022/04/09 20:22:43;;;;;;;;;;;5.00;99.90;;;;;;8353976;28;19929;-71
2022/04/09 20:26:45;;;;;;;;;;;4.90;99.90;;;;;;8357163;28;19939;-71
2022/04/09 20:30:47;;;;;;;;;;;4.80;99.90;;;;;;8366621;28;19925;-71
2022/04/09 20:34:48;;;;;;;;;;;4.80;99.90;;;;;;8355136;28;19924;-71
2022/04/09 20:38:50;;;;;;;;;;;4.70;99.90;;;;;;8365065;28;20327;-71
2022/04/09 20:42:52;;;;;;;;;;;4.60;99.90;;;;;;8356119;28;19936;-72
2022/04/09 20:46:54;;;;;;;;;;;4.70;99.90;;;;;;8359064;28;19932;-70
2022/04/09 20:50:56;;;;;;;;;;;4.70;99.90;;;;;;8355136;28;19987;-71
2022/04/09 20:54:57;;;;;;;;;;;4.70;99.90;;;;;;8354161;28;19967;-70
2022/04/09 20:58:59;;;;;;;;;;;4.60;99.90;;;;;;8354623;28;19932;-71
2022/04/09 21:03:01;;;;;;;;;;;4.60;99.90;;;;;;8368547;28;20237;-71
2022/04/09 21:07:03;;;;;;;;;;;4.60;99.90;;;;;;8383468;28;19963;-71
2022/04/09 21:11:04;;;;;;;;;;;4.60;99.90;;;;;;8374323;28;19971;-71
2022/04/09 21:15:06;;;;;;;;;;;4.60;99.90;;;;;;8382589;28;19932;-71
2022/04/09 21:19:08;;;;;;;;;;;4.50;99.90;;;;;;8380776;28;20391;-71
2022/04/09 21:23:09;;;;;;;;;;;4.50;99.90;;;;;;8375344;28;20027;-71
2022/04/09 21:27:11;;;;;;;;;;;4.40;99.90;;;;;;8386050;28;19925;-71
2022/04/09 21:31:13;;;;;;;;;;;4.40;99.90;;;;;;8385566;28;19924;-71
2022/04/09 21:35:16;;;;;;;;;;;4.40;99.90;;;;;;8416146;28;19924;-71
2022/04/09 21:39:17;;;;;;;;;;;4.20;99.90;;;;;;8386716;28;19929;-71
2022/04/09 21:43:19;;;;;;;;;;;4.00;99.90;;;;;;8400746;28;19925;-71
2022/04/09 21:47:22;;;;;;;;;;;3.80;99.90;;;;;;8381484;28;19932;-71
2022/04/09 21:51:26;;;;;;;;;;;3.70;99.90;;;;;;8389585;28;19924;-71
2022/04/09 21:55:28;;;;;;;;;;;3.60;99.90;;;;;;8373442;28;19925;-71
2022/04/09 21:59:29;;;;;;;;;;;3.60;99.90;;;;;;8383571;28;19931;-71
2022/04/09 22:03:31;;;;;;;;;;;3.60;99.90;;;;;;8376989;28;19951;-71
2022/04/09 22:07:33;;;;;;;;;;;3.60;99.90;;;;;;8374372;28;19929;-71
2022/04/09 22:11:34;;;;;;;;;;;3.60;99.90;;;;;;8372450;28;19925;-71
2022/04/09 22:15:37;;;;;;;;;;;3.60;99.90;;;;;;8378563;28;20288;-71
2022/04/09 22:19:38;;;;;;;;;;;3.60;99.90;;;;;;8378018;28;20395;-71
2022/04/09 22:23:40;;;;;;;;;;;3.50;99.90;;;;;;8379992;28;20376;-71
2022/04/09 22:27:42;;;;;;;;;;;3.40;99.90;;;;;;8377254;28;19925;-71
2022/04/09 22:31:43;;;;;;;;;;;3.40;99.90;;;;;;8376877;28;19957;-71
2022/04/09 22:35:45;;;;;;;;;;;3.30;99.90;;;;;;8379034;28;20245;-71
2022/04/09 22:39:47;;;;;;;;;;;3.20;99.90;;;;;;8380642;28;19935;-71
2022/04/09 22:43:48;;;;;;;;;;;3.30;99.90;;;;;;8378126;28;19937;-71
2022/04/09 22:47:50;;;;;;;;;;;3.40;99.90;;;;;;8379146;28;20288;-71
2022/04/09 22:51:55;;;;;;;;;;;3.50;99.90;;;;;;8384394;28;19925;-71
2022/04/09 22:55:57;;;;;;;;;;;3.70;99.90;;;;;;8372058;28;19936;-71
2022/04/09 22:59:58;;;;;;;;;;;3.90;99.90;;;;;;8374260;28;20603;-71
2022/04/09 23:04:00;;;;;;;;;;;4.00;99.90;;;;;;8371780;28;19961;-71
2022/04/09 23:08:01;;;;;;;;;;;4.10;99.90;;;;;;8379748;28;19935;-71
2022/04/09 23:12:04;;;;;;;;;;;4.10;99.90;;;;;;8373877;28;19925;-71
2022/04/09 23:16:05;;;;;;;;;;;4.10;99.90;;;;;;8377371;28;20249;-71
2022/04/09 23:20:09;;;;;;;;;;;4.00;99.90;;;;;;8381278;28;19931;-71
2022/04/09 23:24:10;;;;;;;;;;;4.00;99.90;;;;;;8380445;28;19932;-71
2022/04/09 23:28:13;;;;;;;;;;;4.00;99.90;;;;;;8377929;28;20292;-71
2022/04/09 23:32:14;;;;;;;;;;;3.90;99.90;;;;;;8423618;27;20360;-71